sensor_id;sensor_type;location;lat;lon;timestamp;temperature;humidity
16814;DHT22;8524;57.650;11.926;2023-04-03T00:00:41;-1.40;99.90
16814;DHT22;8524;57.650;11.926;2023-04-03T00:03:08;-1.50;99.90
16814;DHT22;8524;57.650;11.926;2023-04-03T00:05:35;-1.50;99.90
16814;DHT22;8524;57.650;11.926;2023-04-03T00:08:04;-1.50;99.90
16814;DHT22;8524;57.650;11.926;2023-04-03T00:10:33;-1.50;99.90
16814;DHT22;8524;57.650;11.926;2023-04-03T00:13:01;-1.60;99.90
16814;DHT22;8524;57.650;11.926;2023-04-03T00:15:28;-1.60;99.90
16814;DHT22;8524;57.650;11.926;2023-04-03T00:17:55;-1.60;99.90
16814;DHT22;8524;57.650;11.926;2023-04-03T00:20:22;-1.60;99.90
16814;DHT22;8524;57.650;11.926;2023-04-03T00:22:50;-1.50;99.90
16814;DHT22;8524;57.650;11.926;2023-04-03T00:25:18;-1.60;99.90
16814;DHT22;8524;57.650;11.926;2023-04-03T00:27:45;-1.50;99.90
16814;DHT22;8524;57.650;11.926;2023-04-03T00:30:15;-1.50;99.90
16814;DHT22;8524;57.650;11.926;2023-04-03T00:32:42;-1.50;99.90
16814;DHT22;8524;57.650;11.926;2023-04-03T00:35:10;-1.50;99.90
16814;DHT22;8524;57.650;11.926;2023-04-03T00:37:37;-1.40;99.90
16814;DHT22;8524;57.650;11.926;2023-04-03T00:40:06;-1.40;99.90
16814;DHT22;8524;57.650;11.926;2023-04-03T00:42:36;-1.40;99.90
16814;DHT22;8524;57.650;11.926;2023-04-03T00:45:32;-1.40;99.90
16814;DHT22;8524;57.650;11.926;2023-04-03T00:48:01;-1.40;99.90
16814;DHT22;8524;57.650;11.926;2023-04-03T00:50:33;-1.50;99.90
16814;DHT22;8524;57.650;11.926;2023-04-03T00:53:02;-1.50;99.90
16814;DHT22;8524;57.650;11.926;2023-04-03T00:55:30;-1.50;99.90
16814;DHT22;8524;57.650;11.926;2023-04-03T00:58:00;-1.50;99.90
16814;DHT22;8524;57.650;11.926;2023-04-03T01:00:28;-1.40;99.90
16814;DHT22;8524;57.650;11.926;2023-04-03T01:02:55;-1.40;99.90
16814;DHT22;8524;57.650;11.926;2023-04-03T01:05:22;-1.30;99.90
16814;DHT22;8524;57.650;11.926;2023-04-03T01:07:51;-1.30;99.90
16814;DHT22;8524;57.650;11.926;2023-04-03T01:10:19;-1.00;99.90
16814;DHT22;8524;57.650;11.926;2023-04-03T01:12:48;-0.70;99.90
16814;DHT22;8524;57.650;11.926;2023-04-03T01:15:20;-0.50;99.90
16814;DHT22;8524;57.650;11.926;2023-04-03T01:17:49;-0.30;99.90
16814;DHT22;8524;57.650;11.926;2023-04-03T01:23:38;-0.20;99.90
16814;DHT22;8524;57.650;11.926;2023-04-03T01:26:08;-0.20;99.90
16814;DHT22;8524;57.650;11.926;2023-04-03T01:28:37;-0.10;99.90
16814;DHT22;8524;57.650;11.926;2023-04-03T01:31:18;-0.10;99.90
16814;DHT22;8524;57.650;11.926;2023-04-03T01:33:48;-0.20;99.90
16814;DHT22;8524;57.650;11.926;2023-04-03T01:36:18;-0.20;99.90
16814;DHT22;8524;57.650;11.926;2023-04-03T01:38:46;-0.10;99.90
16814;DHT22;8524;57.650;11.926;2023-04-03T01:41:13;-0.10;99.90
16814;DHT22;8524;57.650;11.926;2023-04-03T01:43:41;-0.10;99.90
16814;DHT22;8524;57.650;11.926;2023-04-03T01:46:08;0.00;99.90
16814;DHT22;8524;57.650;11.926;2023-04-03T01:48:35;-0.10;99.90
16814;DHT22;8524;57.650;11.926;2023-04-03T01:51:04;0.00;99.90
16814;DHT22;8524;57.650;11.926;2023-04-03T01:53:31;0.00;99.90
16814;DHT22;8524;57.650;11.926;2023-04-03T01:55:58;0.00;99.90
16814;DHT22;8524;57.650;11.926;2023-04-03T01:58:25;0.00;99.90
16814;DHT22;8524;57.650;11.926;2023-04-03T02:00:53;0.10;99.90
16814;DHT22;8524;57.650;11.926;2023-04-03T02:03:20;0.00;99.90
16814;DHT22;8524;57.650;11.926;2023-04-03T02:05:47;0.10;99.90
16814;DHT22;8524;57.650;11.926;2023-04-03T02:08:16;0.00;99.90
16814;DHT22;8524;57.650;11.926;2023-04-03T02:10:44;0.00;99.90
16814;DHT22;8524;57.650;11.926;2023-04-03T02:13:13;0.00;99.90
16814;DHT22;8524;57.650;11.926;2023-04-03T02:15:40;-0.10;99.90
16814;DHT22;8524;57.650;11.926;2023-04-03T02:18:07;-0.10;99.90
16814;DHT22;8524;57.650;11.926;2023-04-03T02:20:35;-0.10;99.90
16814;DHT22;8524;57.650;11.926;2023-04-03T02:23:02;-0.10;99.90
16814;DHT22;8524;57.650;11.926;2023-04-03T02:25:32;-0.20;99.90
16814;DHT22;8524;57.650;11.926;2023-04-03T02:27:59;-0.30;99.90
16814;DHT22;8524;57.650;11.926;2023-04-03T02:30:26;-0.30;99.90
16814;DHT22;8524;57.650;11.926;2023-04-03T02:32:54;-0.20;99.90
16814;DHT22;8524;57.650;11.926;2023-04-03T02:35:21;-0.20;99.90
16814;DHT22;8524;57.650;11.926;2023-04-03T02:37:49;-0.20;99.90
16814;DHT22;8524;57.650;11.926;2023-04-03T02:40:17;-0.20;99.90
16814;DHT22;8524;57.650;11.926;2023-04-03T02:42:46;-0.30;99.90
16814;DHT22;8524;57.650;11.926;2023-04-03T02:45:13;-0.20;99.90
16814;DHT22;8524;57.650;11.926;2023-04-03T02:47:40;-0.30;99.90
16814;DHT22;8524;57.650;11.926;2023-04-03T02:50:11;-0.30;99.90
16814;DHT22;8524;57.650;11.926;2023-04-03T02:52:38;-0.30;99.90
16814;DHT22;8524;57.650;11.926;2023-04-03T02:55:06;-0.40;99.90
16814;DHT22;8524;57.650;11.926;2023-04-03T02:57:33;-0.40;99.90
16814;DHT22;8524;57.650;11.926;2023-04-03T03:00:02;-0.50;99.90
16814;DHT22;8524;57.650;11.926;2023-04-03T03:02:30;-0.50;99.90
16814;DHT22;8524;57.650;11.926;2023-04-03T03:04:57;-0.50;99.90
16814;DHT22;8524;57.650;11.926;2023-04-03T03:07:24;-0.50;99.90
16814;DHT22;8524;57.650;11.926;2023-04-03T03:09:51;-0.50;99.90
16814;DHT22;8524;57.650;11.926;2023-04-03T03:12:18;-0.60;99.90
16814;DHT22;8524;57.650;11.926;2023-04-03T03:14:47;-0.60;99.90
16814;DHT22;8524;57.650;11.926;2023-04-03T03:17:15;-0.80;99.90
16814;DHT22;8524;57.650;11.926;2023-04-03T03:19:43;-0.70;99.90
16814;DHT22;8524;57.650;11.926;2023-04-03T03:22:11;-0.80;99.90
16814;DHT22;8524;57.650;11.926;2023-04-03T03:24:38;-0.90;99.90
16814;DHT22;8524;57.650;11.926;2023-04-03T03:27:05;-1.00;99.90
16814;DHT22;8524;57.650;11.926;2023-04-03T03:29:32;-1.00;99.90
16814;DHT22;8524;57.650;11.926;2023-04-03T03:31:59;-1.10;99.90
16814;DHT22;8524;57.650;11.926;2023-04-03T03:34:28;-1.20;99.90
16814;DHT22;8524;57.650;11.926;2023-04-03T03:36:55;-1.30;99.90
16814;DHT22;8524;57.650;11.926;2023-04-03T03:39:22;-1.30;99.90
16814;DHT22;8524;57.650;11.926;2023-04-03T03:41:49;-1.20;99.90
16814;DHT22;8524;57.650;11.926;2023-04-03T03:44:16;-1.30;99.90
16814;DHT22;8524;57.650;11.926;2023-04-03T03:46:43;-1.30;99.90
16814;DHT22;8524;57.650;11.926;2023-04-03T03:49:10;-1.30;99.90
16814;DHT22;8524;57.650;11.926;2023-04-03T03:51:40;-1.40;99.90
16814;DHT22;8524;57.650;11.926;2023-04-03T03:54:07;-1.30;99.90
16814;DHT22;8524;57.650;11.926;2023-04-03T03:56:34;-1.30;99.90
16814;DHT22;8524;57.650;11.926;2023-04-03T03:59:01;-1.20;99.90
16814;DHT22;8524;57.650;11.926;2023-04-03T04:01:28;-1.30;99.90
16814;DHT22;8524;57.650;11.926;2023-04-03T04:03:56;-1.30;99.90
16814;DHT22;8524;57.650;11.926;2023-04-03T04:06:23;-1.30;99.90
16814;DHT22;8524;57.650;11.926;2023-04-03T04:08:51;-1.30;99.90
16814;DHT22;8524;57.650;11.926;2023-04-03T04:11:19;-1.30;99.90
16814;DHT22;8524;57.650;11.926;2023-04-03T04:13:47;-1.40;99.90
16814;DHT22;8524;57.650;11.926;2023-04-03T04:16:14;-1.40;99.90
16814;DHT22;8524;57.650;11.926;2023-04-03T04:18:41;-1.50;99.90
16814;DHT22;8524;57.650;11.926;2023-04-03T04:21:08;-1.50;99.90
16814;DHT22;8524;57.650;11.926;2023-04-03T04:23:35;-1.50;99.90
16814;DHT22;8524;57.650;11.926;2023-04-03T04:26:04;-1.60;99.90
16814;DHT22;8524;57.650;11.926;2023-04-03T04:28:31;-1.60;99.90
16814;DHT22;8524;57.650;11.926;2023-04-03T04:30:58;-1.70;99.90
16814;DHT22;8524;57.650;11.926;2023-04-03T04:33:25;-1.70;99.90
16814;DHT22;8524;57.650;11.926;2023-04-03T04:35:52;-1.70;99.90
16814;DHT22;8524;57.650;11.926;2023-04-03T04:38:19;-1.70;99.90
16814;DHT22;8524;57.650;11.926;2023-04-03T04:40:47;-1.80;99.90
16814;DHT22;8524;57.650;11.926;2023-04-03T04:43:16;-1.80;99.90
16814;DHT22;8524;57.650;11.926;2023-04-03T04:45:43;-1.90;99.90
16814;DHT22;8524;57.650;11.926;2023-04-03T04:48:10;-2.00;99.90
16814;DHT22;8524;57.650;11.926;2023-04-03T04:50:38;-2.00;99.90
16814;DHT22;8524;57.650;11.926;2023-04-03T04:53:05;-2.00;99.90
16814;DHT22;8524;57.650;11.926;2023-04-03T04:55:32;-2.10;99.90
16814;DHT22;8524;57.650;11.926;2023-04-03T04:58:01;-2.10;99.90
16814;DHT22;8524;57.650;11.926;2023-04-03T05:00:29;-2.10;99.90
16814;DHT22;8524;57.650;11.926;2023-04-03T05:02:56;-2.10;99.90
16814;DHT22;8524;57.650;11.926;2023-04-03T05:05:23;-2.10;99.90
16814;DHT22;8524;57.650;11.926;2023-04-03T05:07:50;-2.10;99.90
16814;DHT22;8524;57.650;11.926;2023-04-03T05:10:18;-2.10;99.90
16814;DHT22;8524;57.650;11.926;2023-04-03T05:12:45;-2.10;99.90
16814;DHT22;8524;57.650;11.926;2023-04-03T05:15:12;-2.10;99.90
16814;DHT22;8524;57.650;11.926;2023-04-03T05:17:40;-1.90;99.90
16814;DHT22;8524;57.650;11.926;2023-04-03T05:20:08;-1.70;99.90
16814;DHT22;8524;57.650;11.926;2023-04-03T05:22:35;-1.60;99.90
16814;DHT22;8524;57.650;11.926;2023-04-03T05:25:04;-1.40;99.90
16814;DHT22;8524;57.650;11.926;2023-04-03T05:27:31;-1.10;99.90
16814;DHT22;8524;57.650;11.926;2023-04-03T05:29:58;-0.90;99.90
16814;DHT22;8524;57.650;11.926;2023-04-03T05:32:26;-0.80;99.90
16814;DHT22;8524;57.650;11.926;2023-04-03T05:34:55;-0.60;99.90
16814;DHT22;8524;57.650;11.926;2023-04-03T05:37:22;-0.40;99.90
16814;DHT22;8524;57.650;11.926;2023-04-03T05:39:49;-0.20;99.90
16814;DHT22;8524;57.650;11.926;2023-04-03T05:42:16;0.10;99.90
16814;DHT22;8524;57.650;11.926;2023-04-03T05:44:43;0.40;99.90
16814;DHT22;8524;57.650;11.926;2023-04-03T05:47:12;0.60;99.90
16814;DHT22;8524;57.650;11.926;2023-04-03T05:49:40;0.80;99.90
16814;DHT22;8524;57.650;11.926;2023-04-03T05:52:20;1.00;99.90
16814;DHT22;8524;57.650;11.926;2023-04-03T05:54:48;1.30;99.90
16814;DHT22;8524;57.650;11.926;2023-04-03T05:57:15;1.50;99.90
16814;DHT22;8524;57.650;11.926;2023-04-03T05:59:43;1.70;99.90
16814;DHT22;8524;57.650;11.926;2023-04-03T06:02:11;1.70;99.90
16814;DHT22;8524;57.650;11.926;2023-04-03T06:04:39;1.90;99.90
16814;DHT22;8524;57.650;11.926;2023-04-03T06:07:08;2.10;99.90
16814;DHT22;8524;57.650;11.926;2023-04-03T06:09:37;2.30;99.90
16814;DHT22;8524;57.650;11.926;2023-04-03T06:12:05;2.50;99.90
16814;DHT22;8524;57.650;11.926;2023-04-03T06:14:33;2.60;99.90
16814;DHT22;8524;57.650;11.926;2023-04-03T06:17:02;2.80;99.90
16814;DHT22;8524;57.650;11.926;2023-04-03T06:19:30;3.00;99.90
16814;DHT22;8524;57.650;11.926;2023-04-03T06:21:57;3.10;99.90
16814;DHT22;8524;57.650;11.926;2023-04-03T06:24:26;3.10;99.90
16814;DHT22;8524;57.650;11.926;2023-04-03T06:26:53;3.30;99.90
16814;DHT22;8524;57.650;11.926;2023-04-03T06:29:21;3.40;99.90
16814;DHT22;8524;57.650;11.926;2023-04-03T06:31:49;3.50;99.90
16814;DHT22;8524;57.650;11.926;2023-04-03T06:34:16;3.50;99.90
16814;DHT22;8524;57.650;11.926;2023-04-03T06:36:44;3.50;99.90
16814;DHT22;8524;57.650;11.926;2023-04-03T06:39:14;3.40;99.90
16814;DHT22;8524;57.650;11.926;2023-04-03T06:41:43;3.40;99.90
16814;DHT22;8524;57.650;11.926;2023-04-03T06:44:14;3.50;99.90
16814;DHT22;8524;57.650;11.926;2023-04-03T06:46:42;3.60;99.90
16814;DHT22;8524;57.650;11.926;2023-04-03T06:49:09;3.60;99.90
16814;DHT22;8524;57.650;11.926;2023-04-03T06:51:36;3.40;99.90
16814;DHT22;8524;57.650;11.926;2023-04-03T06:54:10;3.40;99.90
16814;DHT22;8524;57.650;11.926;2023-04-03T06:56:37;3.40;99.90
16814;DHT22;8524;57.650;11.926;2023-04-03T06:59:05;3.70;99.90
16814;DHT22;8524;57.650;11.926;2023-04-03T07:01:32;3.50;99.90
16814;DHT22;8524;57.650;11.926;2023-04-03T07:03:59;3.40;99.90
16814;DHT22;8524;57.650;11.926;2023-04-03T07:06:27;3.50;99.90
16814;DHT22;8524;57.650;11.926;2023-04-03T07:08:55;3.50;99.90
16814;DHT22;8524;57.650;11.926;2023-04-03T07:11:22;3.60;99.90
16814;DHT22;8524;57.650;11.926;2023-04-03T07:13:49;3.60;99.90
16814;DHT22;8524;57.650;11.926;2023-04-03T07:16:21;3.90;99.90
16814;DHT22;8524;57.650;11.926;2023-04-03T07:18:49;3.90;99.90
16814;DHT22;8524;57.650;11.926;2023-04-03T07:21:17;4.00;99.90
16814;DHT22;8524;57.650;11.926;2023-04-03T07:23:45;4.10;99.90
16814;DHT22;8524;57.650;11.926;2023-04-03T07:26:13;4.00;99.90
16814;DHT22;8524;57.650;11.926;2023-04-03T07:28:40;4.10;99.90
16814;DHT22;8524;57.650;11.926;2023-04-03T07:31:10;4.10;99.90
16814;DHT22;8524;57.650;11.926;2023-04-03T07:33:41;4.30;99.90
16814;DHT22;8524;57.650;11.926;2023-04-03T07:36:09;4.40;99.90
16814;DHT22;8524;57.650;11.926;2023-04-03T07:38:37;4.40;99.90
16814;DHT22;8524;57.650;11.926;2023-04-03T07:41:04;4.70;99.90
16814;DHT22;8524;57.650;11.926;2023-04-03T07:43:32;4.70;99.90
16814;DHT22;8524;57.650;11.926;2023-04-03T07:46:00;4.90;99.90
16814;DHT22;8524;57.650;11.926;2023-04-03T07:48:27;5.00;99.90
16814;DHT22;8524;57.650;11.926;2023-04-03T07:50:59;5.10;99.90
16814;DHT22;8524;57.650;11.926;2023-04-03T07:53:27;4.90;99.90
16814;DHT22;8524;57.650;11.926;2023-04-03T07:55:57;5.10;99.90
16814;DHT22;8524;57.650;11.926;2023-04-03T07:58:25;5.20;99.90
16814;DHT22;8524;57.650;11.926;2023-04-03T08:00:55;5.50;99.90
16814;DHT22;8524;57.650;11.926;2023-04-03T08:03:23;5.70;99.90
16814;DHT22;8524;57.650;11.926;2023-04-03T08:05:50;5.80;99.90
16814;DHT22;8524;57.650;11.926;2023-04-03T08:08:22;5.30;98.70
16814;DHT22;8524;57.650;11.926;2023-04-03T08:10:50;5.50;99.60
16814;DHT22;8524;57.650;11.926;2023-04-03T08:13:18;5.70;99.90
16814;DHT22;8524;57.650;11.926;2023-04-03T08:15:45;5.90;99.90
16814;DHT22;8524;57.650;11.926;2023-04-03T08:18:13;6.10;99.90
16814;DHT22;8524;57.650;11.926;2023-04-03T08:20:40;6.10;98.80
16814;DHT22;8524;57.650;11.926;2023-04-03T08:23:08;6.00;98.80
16814;DHT22;8524;57.650;11.926;2023-04-03T08:25:40;6.20;99.90
16814;DHT22;8524;57.650;11.926;2023-04-03T08:28:08;6.40;99.90
16814;DHT22;8524;57.650;11.926;2023-04-03T08:30:35;6.50;99.90
16814;DHT22;8524;57.650;11.926;2023-04-03T08:33:09;6.60;99.90
16814;DHT22;8524;57.650;11.926;2023-04-03T08:35:39;6.90;99.90
16814;DHT22;8524;57.650;11.926;2023-04-03T08:38:07;7.00;99.30
16814;DHT22;8524;57.650;11.926;2023-04-03T08:40:34;7.10;99.90
16814;DHT22;8524;57.650;11.926;2023-04-03T08:43:16;7.30;99.90
16814;DHT22;8524;57.650;11.926;2023-04-03T08:45:49;7.50;99.90
16814;DHT22;8524;57.650;11.926;2023-04-03T08:48:20;7.60;99.90
16814;DHT22;8524;57.650;11.926;2023-04-03T08:50:53;7.50;96.70
16814;DHT22;8524;57.650;11.926;2023-04-03T08:53:23;7.60;98.20
16814;DHT22;8524;57.650;11.926;2023-04-03T08:55:53;7.50;98.50
16814;DHT22;8524;57.650;11.926;2023-04-03T08:58:25;7.80;99.90
16814;DHT22;8524;57.650;11.926;2023-04-03T09:00:57;7.90;99.90
16814;DHT22;8524;57.650;11.926;2023-04-03T09:03:35;7.90;97.00
16814;DHT22;8524;57.650;11.926;2023-04-03T09:06:22;7.70;92.80
16814;DHT22;8524;57.650;11.926;2023-04-03T09:08:56;8.00;96.30
16814;DHT22;8524;57.650;11.926;2023-04-03T09:11:40;8.10;99.70
16814;DHT22;8524;57.650;11.926;2023-04-03T09:14:22;7.90;97.70
16814;DHT22;8524;57.650;11.926;2023-04-03T09:16:55;7.80;97.40
16814;DHT22;8524;57.650;11.926;2023-04-03T09:19:34;7.90;99.90
16814;DHT22;8524;57.650;11.926;2023-04-03T09:22:13;7.80;99.90
16814;DHT22;8524;57.650;11.926;2023-04-03T09:24:55;7.90;98.90
16814;DHT22;8524;57.650;11.926;2023-04-03T09:27:25;8.10;99.90
16814;DHT22;8524;57.650;11.926;2023-04-03T09:29:55;8.20;99.80
16814;DHT22;8524;57.650;11.926;2023-04-03T09:32:27;8.30;97.20
16814;DHT22;8524;57.650;11.926;2023-04-03T09:34:57;8.40;99.30
16814;DHT22;8524;57.650;11.926;2023-04-03T09:37:37;8.50;97.90
16814;DHT22;8524;57.650;11.926;2023-04-03T09:40:32;8.00;93.90
16814;DHT22;8524;57.650;11.926;2023-04-03T09:45:52;8.30;96.90
16814;DHT22;8524;57.650;11.926;2023-04-03T09:48:23;8.20;90.00
16814;DHT22;8524;57.650;11.926;2023-04-03T09:51:01;8.30;92.50
16814;DHT22;8524;57.650;11.926;2023-04-03T09:53:31;8.40;96.30
16814;DHT22;8524;57.650;11.926;2023-04-03T09:56:03;8.60;99.90
16814;DHT22;8524;57.650;11.926;2023-04-03T09:58:32;9.30;99.90
16814;DHT22;8524;57.650;11.926;2023-04-03T10:01:03;9.10;80.20
16814;DHT22;8524;57.650;11.926;2023-04-03T10:03:32;8.80;80.30
16814;DHT22;8524;57.650;11.926;2023-04-03T10:06:04;8.10;85.90
16814;DHT22;8524;57.650;11.926;2023-04-03T10:08:58;8.20;90.10
16814;DHT22;8524;57.650;11.926;2023-04-03T10:11:27;8.50;90.10
16814;DHT22;8524;57.650;11.926;2023-04-03T10:13:56;8.20;85.60
16814;DHT22;8524;57.650;11.926;2023-04-03T10:16:32;7.90;85.30
16814;DHT22;8524;57.650;11.926;2023-04-03T10:19:31;8.10;95.80
16814;DHT22;8524;57.650;11.926;2023-04-03T10:22:03;8.00;87.00
16814;DHT22;8524;57.650;11.926;2023-04-03T10:24:38;8.00;90.50
16814;DHT22;8524;57.650;11.926;2023-04-03T10:27:16;8.00;87.20
16814;DHT22;8524;57.650;11.926;2023-04-03T10:29:53;8.20;89.00
16814;DHT22;8524;57.650;11.926;2023-04-03T10:32:45;8.30;84.40
16814;DHT22;8524;57.650;11.926;2023-04-03T10:35:30;8.20;85.50
16814;DHT22;8524;57.650;11.926;2023-04-03T10:38:09;7.90;92.40
16814;DHT22;8524;57.650;11.926;2023-04-03T10:40:50;8.10;89.30
16814;DHT22;8524;57.650;11.926;2023-04-03T10:43:25;8.30;93.20
16814;DHT22;8524;57.650;11.926;2023-04-03T10:46:06;8.20;88.30
16814;DHT22;8524;57.650;11.926;2023-04-03T10:48:53;8.00;86.70
16814;DHT22;8524;57.650;11.926;2023-04-03T10:51:29;8.20;87.70
16814;DHT22;8524;57.650;11.926;2023-04-03T10:54:05;8.10;98.20
16814;DHT22;8524;57.650;11.926;2023-04-03T10:56:44;8.60;91.40
16814;DHT22;8524;57.650;11.926;2023-04-03T10:59:24;8.80;92.80
16814;DHT22;8524;57.650;11.926;2023-04-03T11:01:55;9.00;91.70
16814;DHT22;8524;57.650;11.926;2023-04-03T11:04:28;9.20;93.80
16814;DHT22;8524;57.650;11.926;2023-04-03T11:07:01;9.10;91.80
16814;DHT22;8524;57.650;11.926;2023-04-03T11:09:34;8.90;91.20
16814;DHT22;8524;57.650;11.926;2023-04-03T11:12:18;9.00;93.50
16814;DHT22;8524;57.650;11.926;2023-04-03T11:14:50;9.10;91.10
16814;DHT22;8524;57.650;11.926;2023-04-03T11:17:30;9.00;93.30
16814;DHT22;8524;57.650;11.926;2023-04-03T11:20:06;8.90;90.30
16814;DHT22;8524;57.650;11.926;2023-04-03T11:22:38;8.80;91.40
16814;DHT22;8524;57.650;11.926;2023-04-03T11:25:15;8.70;90.20
16814;DHT22;8524;57.650;11.926;2023-04-03T11:27:49;8.80;91.90
16814;DHT22;8524;57.650;11.926;2023-04-03T11:30:20;8.80;91.30
16814;DHT22;8524;57.650;11.926;2023-04-03T11:33:04;8.90;91.90
16814;DHT22;8524;57.650;11.926;2023-04-03T11:35:34;8.90;92.10
16814;DHT22;8524;57.650;11.926;2023-04-03T11:38:04;8.90;91.10
16814;DHT22;8524;57.650;11.926;2023-04-03T11:40:34;8.70;91.50
16814;DHT22;8524;57.650;11.926;2023-04-03T11:43:07;8.70;92.70
16814;DHT22;8524;57.650;11.926;2023-04-03T11:45:54;8.80;94.40
16814;DHT22;8524;57.650;11.926;2023-04-03T11:48:50;8.90;92.90
16814;DHT22;8524;57.650;11.926;2023-04-03T11:54:50;8.80;92.80
16814;DHT22;8524;57.650;11.926;2023-04-03T11:57:46;9.00;92.10
16814;DHT22;8524;57.650;11.926;2023-04-03T12:01:08;9.10;95.50
16814;DHT22;8524;57.650;11.926;2023-04-03T12:03:58;9.00;90.00
16814;DHT22;8524;57.650;11.926;2023-04-03T12:06:50;8.90;92.80
16814;DHT22;8524;57.650;11.926;2023-04-03T12:09:24;9.00;90.90
16814;DHT22;8524;57.650;11.926;2023-04-03T12:11:55;9.00;87.30
16814;DHT22;8524;57.650;11.926;2023-04-03T12:14:31;8.90;82.80
16814;DHT22;8524;57.650;11.926;2023-04-03T12:17:02;9.10;85.90
16814;DHT22;8524;57.650;11.926;2023-04-03T12:19:34;9.10;88.20
16814;DHT22;8524;57.650;11.926;2023-04-03T12:22:19;9.40;93.40
16814;DHT22;8524;57.650;11.926;2023-04-03T12:24:49;9.50;91.20
16814;DHT22;8524;57.650;11.926;2023-04-03T12:27:28;9.30;74.90
16814;DHT22;8524;57.650;11.926;2023-04-03T12:30:04;9.00;79.00
16814;DHT22;8524;57.650;11.926;2023-04-03T12:32:56;9.10;96.20
16814;DHT22;8524;57.650;11.926;2023-04-03T12:35:29;9.40;87.10
16814;DHT22;8524;57.650;11.926;2023-04-03T12:43:59;9.80;90.60
16814;DHT22;8524;57.650;11.926;2023-04-03T12:46:35;9.70;90.30
16814;DHT22;8524;57.650;11.926;2023-04-03T12:49:35;9.40;80.70
16814;DHT22;8524;57.650;11.926;2023-04-03T12:52:19;9.40;85.30
16814;DHT22;8524;57.650;11.926;2023-04-03T12:54:49;9.30;84.00
16814;DHT22;8524;57.650;11.926;2023-04-03T12:57:19;9.30;89.50
16814;DHT22;8524;57.650;11.926;2023-04-03T12:59:48;9.10;88.00
16814;DHT22;8524;57.650;11.926;2023-04-03T13:02:21;9.40;91.30
16814;DHT22;8524;57.650;11.926;2023-04-03T13:04:51;9.30;91.20
16814;DHT22;8524;57.650;11.926;2023-04-03T13:07:26;9.40;86.80
16814;DHT22;8524;57.650;11.926;2023-04-03T13:09:58;9.50;93.00
16814;DHT22;8524;57.650;11.926;2023-04-03T13:12:30;9.50;91.30
16814;DHT22;8524;57.650;11.926;2023-04-03T13:15:13;9.30;84.50
16814;DHT22;8524;57.650;11.926;2023-04-03T13:17:52;9.40;94.50
16814;DHT22;8524;57.650;11.926;2023-04-03T13:20:24;9.70;93.20
16814;DHT22;8524;57.650;11.926;2023-04-03T13:23:00;9.80;90.60
16814;DHT22;8524;57.650;11.926;2023-04-03T13:25:33;10.00;89.70
16814;DHT22;8524;57.650;11.926;2023-04-03T13:28:02;10.00;91.30
16814;DHT22;8524;57.650;11.926;2023-04-03T13:30:34;9.90;84.30
16814;DHT22;8524;57.650;11.926;2023-04-03T13:33:04;9.90;85.10
16814;DHT22;8524;57.650;11.926;2023-04-03T13:35:36;9.70;86.00
16814;DHT22;8524;57.650;11.926;2023-04-03T13:38:07;9.30;87.10
16814;DHT22;8524;57.650;11.926;2023-04-03T13:40:49;9.30;90.30
16814;DHT22;8524;57.650;11.926;2023-04-03T13:43:22;9.20;92.70
16814;DHT22;8524;57.650;11.926;2023-04-03T13:45:59;9.10;90.90
16814;DHT22;8524;57.650;11.926;2023-04-03T13:48:39;9.20;87.40
16814;DHT22;8524;57.650;11.926;2023-04-03T13:51:18;9.00;90.50
16814;DHT22;8524;57.650;11.926;2023-04-03T13:53:48;9.00;84.30
16814;DHT22;8524;57.650;11.926;2023-04-03T13:56:23;8.90;90.30
16814;DHT22;8524;57.650;11.926;2023-04-03T13:58:58;9.00;90.10
16814;DHT22;8524;57.650;11.926;2023-04-03T14:01:35;9.10;89.20
16814;DHT22;8524;57.650;11.926;2023-04-03T14:04:12;8.90;90.10
16814;DHT22;8524;57.650;11.926;2023-04-03T14:06:39;8.90;92.50
16814;DHT22;8524;57.650;11.926;2023-04-03T14:09:06;9.10;96.70
16814;DHT22;8524;57.650;11.926;2023-04-03T14:11:34;9.30;94.70
16814;DHT22;8524;57.650;11.926;2023-04-03T14:14:05;9.10;93.70
16814;DHT22;8524;57.650;11.926;2023-04-03T14:16:40;9.20;95.20
16814;DHT22;8524;57.650;11.926;2023-04-03T14:19:09;9.20;94.70
16814;DHT22;8524;57.650;11.926;2023-04-03T14:21:41;9.10;95.30
16814;DHT22;8524;57.650;11.926;2023-04-03T14:24:08;9.10;96.70
16814;DHT22;8524;57.650;11.926;2023-04-03T14:26:37;9.10;95.10
16814;DHT22;8524;57.650;11.926;2023-04-03T14:29:04;9.10;95.60
16814;DHT22;8524;57.650;11.926;2023-04-03T14:31:31;9.10;93.00
16814;DHT22;8524;57.650;11.926;2023-04-03T14:34:00;9.00;92.10
16814;DHT22;8524;57.650;11.926;2023-04-03T14:36:29;8.90;94.00
16814;DHT22;8524;57.650;11.926;2023-04-03T14:38:57;8.90;96.80
16814;DHT22;8524;57.650;11.926;2023-04-03T14:41:27;8.70;94.10
16814;DHT22;8524;57.650;11.926;2023-04-03T14:43:54;8.80;97.10
16814;DHT22;8524;57.650;11.926;2023-04-03T14:46:26;9.00;97.20
16814;DHT22;8524;57.650;11.926;2023-04-03T14:48:53;9.10;95.70
16814;DHT22;8524;57.650;11.926;2023-04-03T14:51:23;8.80;93.80
16814;DHT22;8524;57.650;11.926;2023-04-03T14:53:50;8.70;95.20
16814;DHT22;8524;57.650;11.926;2023-04-03T14:56:19;8.50;94.90
16814;DHT22;8524;57.650;11.926;2023-04-03T14:58:48;8.40;96.60
16814;DHT22;8524;57.650;11.926;2023-04-03T15:01:17;8.40;98.10
16814;DHT22;8524;57.650;11.926;2023-04-03T15:03:44;8.40;97.30
16814;DHT22;8524;57.650;11.926;2023-04-03T15:06:12;8.30;98.00
16814;DHT22;8524;57.650;11.926;2023-04-03T15:08:42;8.30;96.80
16814;DHT22;8524;57.650;11.926;2023-04-03T15:11:10;8.20;97.40
16814;DHT22;8524;57.650;11.926;2023-04-03T15:13:37;8.30;97.40
16814;DHT22;8524;57.650;11.926;2023-04-03T15:16:05;8.30;95.70
16814;DHT22;8524;57.650;11.926;2023-04-03T15:18:37;8.10;97.20
16814;DHT22;8524;57.650;11.926;2023-04-03T15:21:04;7.80;98.10
16814;DHT22;8524;57.650;11.926;2023-04-03T15:23:31;7.90;98.90
16814;DHT22;8524;57.650;11.926;2023-04-03T15:26:00;7.90;98.10
16814;DHT22;8524;57.650;11.926;2023-04-03T15:28:30;7.70;99.90
16814;DHT22;8524;57.650;11.926;2023-04-03T15:30:57;7.80;99.90
16814;DHT22;8524;57.650;11.926;2023-04-03T15:33:25;7.90;99.90
16814;DHT22;8524;57.650;11.926;2023-04-03T15:35:52;8.00;99.90
16814;DHT22;8524;57.650;11.926;2023-04-03T15:38:19;7.90;98.30
16814;DHT22;8524;57.650;11.926;2023-04-03T15:40:47;7.70;99.30
16814;DHT22;8524;57.650;11.926;2023-04-03T15:43:16;7.60;99.90
16814;DHT22;8524;57.650;11.926;2023-04-03T15:45:44;7.60;99.70
16814;DHT22;8524;57.650;11.926;2023-04-03T15:48:12;7.60;99.90
16814;DHT22;8524;57.650;11.926;2023-04-03T15:50:41;7.60;99.90
16814;DHT22;8524;57.650;11.926;2023-04-03T15:53:08;7.60;99.90
16814;DHT22;8524;57.650;11.926;2023-04-03T15:55:37;7.60;98.80
16814;DHT22;8524;57.650;11.926;2023-04-03T15:58:04;7.40;98.50
16814;DHT22;8524;57.650;11.926;2023-04-03T16:00:33;7.30;99.50
16814;DHT22;8524;57.650;11.926;2023-04-03T16:03:04;7.20;99.90
16814;DHT22;8524;57.650;11.926;2023-04-03T16:05:32;7.20;99.60
16814;DHT22;8524;57.650;11.926;2023-04-03T16:08:01;7.00;99.90
16814;DHT22;8524;57.650;11.926;2023-04-03T16:10:28;7.00;99.00
16814;DHT22;8524;57.650;11.926;2023-04-03T16:12:55;6.90;99.90
16814;DHT22;8524;57.650;11.926;2023-04-03T16:15:23;6.90;99.30
16814;DHT22;8524;57.650;11.926;2023-04-03T16:17:52;6.90;99.70